Time,TemperatureF,DewpointF,PressureIn,WindDirection,WindDirectionDegrees,WindSpeedMPH,WindSpeedGustMPH,Humidity,HourlyPrecipIn,Conditions,Clouds,dailyrainin,SoftwareType,DateUTC
2013-01-19 00:00:00,19.0,14.4,30.15,NNW,344,0.0,0.0,82,0.00,CLR,,0.00,WeatherDisplay:10.37,2013-01-19 09:00:00,
2013-01-19 00:05:00,19.0,14.4,30.16,NNW,345,0.0,0.0,82,0.00,CLR,,0.00,WeatherDisplay:10.37,2013-01-19 09:05:00,
2013-01-19 00:10:00,19.0,14.4,30.16,NNW,345,0.0,0.0,82,0.00,CLR,,0.00,WeatherDisplay:10.37,2013-01-19 09:10:00,
2013-01-19 00:15:00,19.1,14.8,30.16,NNW,344,0.0,0.0,83,0.00,CLR,,0.00,WeatherDisplay:10.37,2013-01-19 09:15:00,
2013-01-19 00:20:00,19.2,14.9,30.16,NNW,345,0.0,0.0,83,0.00,CLR,,0.00,WeatherDisplay:10.37,2013-01-19 09:20:00,
2013-01-19 00:25:00,19.2,14.9,30.16,NNW,345,0.0,0.0,83,0.00,CLR,,0.00,WeatherDisplay:10.37,2013-01-19 09:25:00,
2013-01-19 00:30:00,19.3,15.0,30.16,NNW,345,0.0,0.0,83,0.00,CLR,,0.00,WeatherDisplay:10.37,2013-01-19 09:30:00,
2013-01-19 00:35:00,19.3,15.0,30.16,NNW,344,0.0,0.0,83,0.00,CLR,,0.00,WeatherDisplay:10.37,2013-01-19 09:35:00,
2013-01-19 00:40:00,19.3,15.0,30.16,NNW,345,0.0,0.0,83,0.00,CLR,,0.00,WeatherDisplay:10.37,2013-01-19 09:40:00,
2013-01-19 00:45:00,19.3,15.0,30.16,NNW,345,0.0,0.0,83,0.00,CLR,,0.00,WeatherDisplay:10.37,2013-01-19 09:45:00,
2013-01-19 00:50:00,19.3,15.0,30.16,NNW,345,0.0,0.0,83,0.00,CLR,,0.00,WeatherDisplay:10.37,2013-01-19 09:50:00,
2013-01-19 00:55:00,19.2,14.9,30.16,NNW,345,0.0,0.0,83,0.00,CLR,,0.00,WeatherDisplay:10.37,2013-01-19 09:55:00,
2013-01-19 01:00:00,19.3,15.0,30.16,NNW,345,0.0,0.0,83,0.00,CLR,,0.00,WeatherDisplay:10.37,2013-01-19 10:00:00,
2013-01-19 01:05:00,19.3,15.0,30.16,NNW,345,0.0,0.0,83,0.00,CLR,,0.00,WeatherDisplay:10.37,2013-01-19 10:05:00,
2013-01-19 01:10:00,19.3,15.3,30.16,NNW,345,0.0,0.0,84,0.00,CLR,,0.00,WeatherDisplay:10.37,2013-01-19 10:10:00,
2013-01-19 01:15:00,19.3,15.3,30.16,NNW,344,0.0,0.0,84,0.00,CLR,,0.00,WeatherDisplay:10.37,2013-01-19 10:15:00,
2013-01-19 01:20:00,19.3,15.0,30.16,NNW,345,0.0,0.0,83,0.00,CLR,,0.00,WeatherDisplay:10.37,2013-01-19 10:20:00,
2013-01-19 01:25:00,19.2,14.9,30.16,NNW,344,0.0,0.0,83,0.00,CLR,,0.00,WeatherDisplay:10.37,2013-01-19 10:25:00,
2013-01-19 01:30:00,19.1,14.8,30.16,NNW,344,0.0,0.0,83,0.00,CLR,,0.00,WeatherDisplay:10.37,2013-01-19 10:30:00,
2013-01-19 01:35:00,19.1,15.1,30.16,NNW,345,0.0,0.0,84,0.00,CLR,,0.00,WeatherDisplay:10.37,2013-01-19 10:35:00,
2013-01-19 01:40:00,19.1,15.1,30.16,NNW,345,0.0,0.0,84,0.00,CLR,,0.00,WeatherDisplay:10.37,2013-01-19 10:40:00,
2013-01-19 01:45:00,19.1,15.1,30.16,NNW,345,0.0,0.0,84,0.00,CLR,,0.00,WeatherDisplay:10.37,2013-01-19 10:45:00,
2013-01-19 01:50:00,19.1,15.1,30.16,NNW,344,0.0,0.0,84,0.00,CLR,,0.00,WeatherDisplay:10.37,2013-01-19 10:50:00,
2013-01-19 01:55:00,19.1,15.1,30.16,NNW,344,0.0,0.0,84,0.00,CLR,,0.00,WeatherDisplay:10.37,2013-01-19 10:55:00,
2013-01-19 02:00:00,19.2,15.2,30.16,NNW,345,0.0,0.0,84,0.00,CLR,,0.00,WeatherDisplay:10.37,2013-01-19 11:00:00,
2013-01-19 02:05:00,19.2,15.2,30.16,NNW,345,0.0,0.0,84,0.00,CLR,,0.00,WeatherDisplay:10.37,2013-01-19 11:05:00,
2013-01-19 02:10:00,19.3,15.3,30.16,NNW,344,0.0,0.0,84,0.00,CLR,,0.00,WeatherDisplay:10.37,2013-01-19 11:10:00,
2013-01-19 03:47:00,20.1,16.3,30.16,NNW,345,0.0,0.0,85,0.00,CLR,,0.00,WeatherDisplay:10.37,2013-01-19 12:47:00,
2013-01-19 03:48:00,20.2,16.4,30.16,NNW,345,0.0,0.0,85,0.00,CLR,,0.00,WeatherDisplay:10.37,2013-01-19 12:48:00,
2013-01-19 03:53:00,20.3,16.8,30.16,NNW,345,0.0,0.0,86,0.00,CLR,,0.00,WeatherDisplay:10.37,2013-01-19 12:53:00,
2013-01-19 03:58:00,20.7,17.7,30.16,NNW,345,0.0,0.0,88,0.00,CLR,,0.00,WeatherDisplay:10.37,2013-01-19 12:58:00,
2013-01-19 04:03:00,21.1,18.1,30.16,NNW,344,0.0,0.0,88,0.00,CLR,,0.00,WeatherDisplay:10.37,2013-01-19 13:03:00,
2013-01-19 04:08:00,20.9,17.1,30.16,NNW,344,0.0,0.0,85,0.00,CLR,,0.00,WeatherDisplay:10.37,2013-01-19 13:08:00,
2013-01-19 04:13:00,20.7,16.6,30.16,NNW,345,0.0,0.0,84,0.00,CLR,,0.00,WeatherDisplay:10.37,2013-01-19 13:13:00,
2013-01-19 04:18:00,20.6,16.5,30.16,NNW,345,0.0,0.0,84,0.00,CLR,,0.00,WeatherDisplay:10.37,2013-01-19 13:18:00,
2013-01-19 04:23:00,20.7,17.4,30.16,NNW,345,0.0,0.0,87,0.00,CLR,,0.00,WeatherDisplay:10.37,2013-01-19 13:23:00,
2013-01-19 04:28:00,22.1,19.6,30.16,NNW,345,0.0,0.0,90,0.00,CLR,,0.00,WeatherDisplay:10.37,2013-01-19 13:28:00,
2013-01-19 04:33:00,23.1,20.6,30.16,NNW,344,0.0,0.0,90,0.00,CLR,,0.00,WeatherDisplay:10.37,2013-01-19 13:33:00,
2013-01-19 04:38:00,23.3,20.5,30.15,NNW,344,0.0,0.0,89,0.00,CLR,,0.00,WeatherDisplay:10.37,2013-01-19 13:38:00,
2013-01-19 04:43:00,22.9,19.3,30.15,NNW,344,0.0,0.0,86,0.00,CLR,,0.00,WeatherDisplay:10.37,2013-01-19 13:43:00,
2013-01-19 04:48:00,22.5,18.7,30.15,NNW,344,0.0,0.0,85,0.00,CLR,,0.00,WeatherDisplay:10.37,2013-01-19 13:48:00,
2013-01-19 04:53:00,22.0,17.9,30.15,NNW,345,0.0,0.0,84,0.00,CLR,,0.00,WeatherDisplay:10.37,2013-01-19 13:53:00,
2013-01-19 04:58:00,22.4,19.6,30.15,NNW,345,0.0,0.0,89,0.00,CLR,,0.00,WeatherDisplay:10.37,2013-01-19 13:58:00,
2013-01-19 05:03:00,22.6,19.8,30.15,NNW,345,0.0,0.0,89,0.00,CLR,,0.00,WeatherDisplay:10.37,2013-01-19 14:03:00,
2013-01-19 05:08:00,22.9,20.1,30.15,NNW,344,0.0,0.0,89,0.00,CLR,,0.00,WeatherDisplay:10.37,2013-01-19 14:08:00,
2013-01-19 05:13:00,22.7,19.1,30.14,NNW,345,0.0,0.0,86,0.00,CLR,,0.00,WeatherDisplay:10.37,2013-01-19 14:13:00,
2013-01-19 05:18:00,22.1,18.0,30.14,NNW,344,0.0,0.0,84,0.00,CLR,,0.00,WeatherDisplay:10.37,2013-01-19 14:18:00,
2013-01-19 05:23:00,21.8,17.7,30.14,NNW,345,0.0,0.0,84,0.00,CLR,,0.00,WeatherDisplay:10.37,2013-01-19 14:23:00,
2013-01-19 05:28:00,22.2,19.5,30.14,NNW,345,0.0,0.0,89,0.00,CLR,,0.00,WeatherDisplay:10.37,2013-01-19 14:28:00,
2013-01-19 05:33:00,23.1,20.9,30.14,NNW,345,0.0,0.0,91,0.00,CLR,,0.00,WeatherDisplay:10.37,2013-01-19 14:33:00,
2013-01-19 05:38:00,23.9,21.7,30.14,NNW,344,0.0,0.0,91,0.00,CLR,,0.00,WeatherDisplay:10.37,2013-01-19 14:38:00,
2013-01-19 05:43:00,23.6,20.3,30.14,NNW,345,0.0,0.0,87,0.00,CLR,,0.00,WeatherDisplay:10.37,2013-01-19 14:43:00,
2013-01-19 05:48:00,23.1,19.0,30.14,NNW,345,0.0,0.0,84,0.00,CLR,,0.00,WeatherDisplay:10.37,2013-01-19 14:48:00,
2013-01-19 05:53:00,23.3,20.3,30.14,NNW,344,0.0,0.0,88,0.00,CLR,,0.00,WeatherDisplay:10.37,2013-01-19 14:53:00,
2013-01-19 05:58:00,24.6,22.1,30.14,NNW,345,0.0,0.0,90,0.00,CLR,,0.00,WeatherDisplay:10.37,2013-01-19 14:58:00,
2013-01-19 06:03:00,25.9,23.4,30.14,NNW,345,0.0,0.0,90,0.00,CLR,,0.00,WeatherDisplay:10.37,2013-01-19 15:03:00,
2013-01-19 06:08:00,27.0,23.6,30.14,NNW,345,0.0,0.0,87,0.00,CLR,,0.00,WeatherDisplay:10.37,2013-01-19 15:08:00,
2013-01-19 06:13:00,27.4,23.8,30.14,NNW,345,0.0,0.0,86,0.00,CLR,,0.00,WeatherDisplay:10.37,2013-01-19 15:13:00,
2013-01-19 06:18:00,27.6,23.7,30.13,NNW,344,0.0,0.0,85,0.00,CLR,,0.00,WeatherDisplay:10.37,2013-01-19 15:18:00,
2013-01-19 06:23:00,27.4,23.5,30.14,NNW,345,0.0,0.0,85,0.00,CLR,,0.00,WeatherDisplay:10.37,2013-01-19 15:23:00,
2013-01-19 06:28:00,26.9,22.4,30.14,NNW,344,0.0,0.0,83,0.00,CLR,,0.00,WeatherDisplay:10.37,2013-01-19 15:28:00,
2013-01-19 06:33:00,25.8,20.8,30.14,NNW,344,0.0,0.0,81,0.00,CLR,,0.00,WeatherDisplay:10.37,2013-01-19 15:33:00,
2013-01-19 06:38:00,25.4,21.8,30.14,NNW,344,0.0,0.0,86,0.00,CLR,,0.00,WeatherDisplay:10.37,2013-01-19 15:38:00,
2013-01-19 06:43:00,26.0,22.9,30.13,NNW,345,0.0,0.0,88,0.00,CLR,,0.00,WeatherDisplay:10.37,2013-01-19 15:43:00,
2013-01-19 06:48:00,26.5,23.2,30.13,NNW,344,0.0,0.0,87,0.00,CLR,,0.00,WeatherDisplay:10.37,2013-01-19 15:48:00,
2013-01-19 06:53:00,26.8,23.4,30.14,NNW,345,0.0,0.0,87,0.00,CLR,,0.00,WeatherDisplay:10.37,2013-01-19 15:53:00,
2013-01-19 06:58:00,26.9,23.5,30.14,NNW,345,0.0,0.0,87,0.00,CLR,,0.00,WeatherDisplay:10.37,2013-01-19 15:58:00,
2013-01-19 07:03:00,26.8,23.2,30.14,NNW,344,0.0,0.0,86,0.00,CLR,,0.00,WeatherDisplay:10.37,2013-01-19 16:03:00,
2013-01-19 07:08:00,26.2,22.3,30.14,NNW,344,0.0,0.0,85,0.00,CLR,,0.00,WeatherDisplay:10.37,2013-01-19 16:08:00,
2013-01-19 07:13:00,25.3,20.6,30.14,NNW,345,0.0,0.0,82,0.00,CLR,,0.00,WeatherDisplay:10.37,2013-01-19 16:13:00,
2013-01-19 07:18:00,24.7,20.3,30.14,NNW,345,0.0,0.0,83,0.00,CLR,,0.00,WeatherDisplay:10.37,2013-01-19 16:18:00,
2013-01-19 07:23:00,24.3,20.2,30.13,NNW,345,0.0,0.0,84,0.00,CLR,,0.00,WeatherDisplay:10.37,2013-01-19 16:23:00,
2013-01-19 07:28:00,24.3,20.7,30.13,NNW,344,0.0,0.0,86,0.00,CLR,,0.00,WeatherDisplay:10.37,2013-01-19 16:28:00,
2013-01-19 07:33:00,24.7,21.7,30.13,NNW,344,0.0,0.0,88,0.00,CLR,,0.00,WeatherDisplay:10.37,2013-01-19 16:33:00,
2013-01-19 07:38:00,25.2,22.4,30.13,NNW,345,0.0,0.0,89,0.00,CLR,,0.00,WeatherDisplay:10.37,2013-01-19 16:38:00,
2013-01-19 07:43:00,25.2,22.1,30.13,NNW,345,0.0,0.0,88,0.00,CLR,,0.00,WeatherDisplay:10.37,2013-01-19 16:43:00,
2013-01-19 07:48:00,25.3,22.2,30.13,NNW,345,0.0,0.0,88,0.00,CLR,,0.00,WeatherDisplay:10.37,2013-01-19 16:48:00,
2013-01-19 07:53:00,25.5,22.4,30.13,NNW,345,0.0,0.0,88,0.00,CLR,,0.00,WeatherDisplay:10.37,2013-01-19 16:53:00,
2013-01-19 07:58:00,25.8,23.0,30.13,NNW,345,0.0,0.0,89,0.00,CLR,,0.00,WeatherDisplay:10.37,2013-01-19 16:58:00,
2013-01-19 08:03:00,25.7,22.6,30.13,NNW,344,0.0,0.0,88,0.00,CLR,,0.00,WeatherDisplay:10.37,2013-01-19 17:03:00,
2013-01-19 08:08:00,25.6,22.5,30.13,NNW,345,0.0,0.0,88,0.00,CLR,,0.00,WeatherDisplay:10.37,2013-01-19 17:08:00,
2013-01-19 08:13:00,25.3,22.0,30.13,NNW,345,0.0,0.0,87,0.00,CLR,,0.00,WeatherDisplay:10.37,2013-01-19 17:13:00,
2013-01-19 08:18:00,25.1,21.8,30.13,NNW,345,0.0,0.0,87,0.00,CLR,,0.00,WeatherDisplay:10.37,2013-01-19 17:18:00,
2013-01-19 08:23:00,25.6,22.8,30.13,NNW,345,0.0,0.0,89,0.00,CLR,,0.00,WeatherDisplay:10.37,2013-01-19 17:23:00,
2013-01-19 08:28:00,26.3,23.5,30.13,NNW,345,0.0,0.0,89,0.00,CLR,,0.00,WeatherDisplay:10.37,2013-01-19 17:28:00,
2013-01-19 08:33:00,26.8,23.7,30.13,NNW,345,0.0,0.0,88,0.00,CLR,,0.00,WeatherDisplay:10.37,2013-01-19 17:33:00,
2013-01-19 08:38:00,27.0,23.9,30.13,NNW,345,0.0,0.0,88,0.00,CLR,,0.00,WeatherDisplay:10.37,2013-01-19 17:38:00,
2013-01-19 08:43:00,27.0,23.9,30.13,NNW,345,0.0,0.0,88,0.00,CLR,,0.00,WeatherDisplay:10.37,2013-01-19 17:43:00,
2013-01-19 08:48:00,27.0,23.9,30.13,NNW,344,0.0,0.0,88,0.00,CLR,,0.00,WeatherDisplay:10.37,2013-01-19 17:48:00,
2013-01-19 08:53:00,27.0,23.9,30.13,NNW,345,0.0,0.0,88,0.00,CLR,,0.00,WeatherDisplay:10.37,2013-01-19 17:53:00,
2013-01-19 08:58:00,27.0,23.9,30.13,NNW,345,0.0,0.0,88,0.00,CLR,,0.00,WeatherDisplay:10.37,2013-01-19 17:58:00,
2013-01-19 09:03:00,27.0,23.9,30.13,NNW,344,0.0,0.0,88,0.00,CLR,,0.00,WeatherDisplay:10.37,2013-01-19 18:03:00,
2013-01-19 09:08:00,27.0,23.9,30.13,NNW,345,0.0,0.0,88,0.00,CLR,,0.00,WeatherDisplay:10.37,2013-01-19 18:08:00,
2013-01-19 09:13:00,26.9,23.8,30.13,NNW,345,0.0,0.0,88,0.00,CLR,,0.00,WeatherDisplay:10.37,2013-01-19 18:13:00,
2013-01-19 09:18:00,26.8,23.7,30.14,NNW,344,0.0,0.0,88,0.00,CLR,,0.00,WeatherDisplay:10.37,2013-01-19 18:18:00,
2013-01-19 09:23:00,26.7,23.6,30.14,NNW,345,0.0,0.0,88,0.00,CLR,,0.00,WeatherDisplay:10.37,2013-01-19 18:23:00,
2013-01-19 09:28:00,26.6,23.5,30.14,NNW,345,0.0,0.0,88,0.00,CLR,,0.00,WeatherDisplay:10.37,2013-01-19 18:28:00,
2013-01-19 09:33:00,26.6,23.5,30.14,NNW,344,0.0,0.0,88,0.00,CLR,,0.00,WeatherDisplay:10.37,2013-01-19 18:33:00,
2013-01-19 09:38:00,26.5,23.7,30.14,NNW,345,0.0,0.0,89,0.00,CLR,,0.00,WeatherDisplay:10.37,2013-01-19 18:38:00,
2013-01-19 09:43:00,26.5,23.7,30.14,NNW,345,0.0,0.0,89,0.00,CLR,,0.00,WeatherDisplay:10.37,2013-01-19 18:43:00,
2013-01-19 09:48:00,26.4,23.6,30.14,NNW,344,0.0,0.0,89,0.00,CLR,,0.00,WeatherDisplay:10.37,2013-01-19 18:48:00,
2013-01-19 09:53:00,26.3,23.5,30.14,NNW,345,0.0,0.0,89,0.00,CLR,,0.00,WeatherDisplay:10.37,2013-01-19 18:53:00,
2013-01-19 09:58:00,26.2,23.4,30.14,NNW,344,0.0,0.0,89,0.00,CLR,,0.00,WeatherDisplay:10.37,2013-01-19 18:58:00,
2013-01-19 10:03:00,26.2,23.4,30.14,NNW,344,0.0,0.0,89,0.00,CLR,,0.00,WeatherDisplay:10.37,2013-01-19 19:03:00,
2013-01-19 10:08:00,26.1,23.3,30.14,NNW,344,0.0,0.0,89,0.00,CLR,,0.00,WeatherDisplay:10.37,2013-01-19 19:08:00,
2013-01-19 10:13:00,26.1,23.3,30.14,NNW,344,0.0,0.0,89,0.00,CLR,,0.00,WeatherDisplay:10.37,2013-01-19 19:13:00,
2013-01-19 10:18:00,26.0,23.2,30.14,NNW,345,0.0,0.0,89,0.00,CLR,,0.00,WeatherDisplay:10.37,2013-01-19 19:18:00,
2013-01-19 10:23:00,26.0,23.2,30.14,NNW,345,0.0,0.0,89,0.00,CLR,,0.00,WeatherDisplay:10.37,2013-01-19 19:23:00,
2013-01-19 10:28:00,25.9,23.4,30.14,NNW,345,0.0,0.0,90,0.00,CLR,,0.00,WeatherDisplay:10.37,2013-01-19 19:28:00,
2013-01-19 10:33:00,26.0,23.5,30.14,NNW,345,0.0,0.0,90,0.00,CLR,,0.00,WeatherDisplay:10.37,2013-01-19 19:33:00,
2013-01-19 10:38:00,26.1,23.6,30.14,NNW,344,0.0,0.0,90,0.00,CLR,,0.00,WeatherDisplay:10.37,2013-01-19 19:38:00,
2013-01-19 10:43:00,26.1,23.6,30.14,NNW,345,0.0,0.0,90,0.00,CLR,,0.00,WeatherDisplay:10.37,2013-01-19 19:43:00,
2013-01-19 10:48:00,26.2,23.7,30.14,NNW,345,0.0,0.0,90,0.00,CLR,,0.00,WeatherDisplay:10.37,2013-01-19 19:48:00,
2013-01-19 10:53:00,26.4,24.1,30.14,NNW,345,0.0,0.0,91,0.00,CLR,,0.00,WeatherDisplay:10.37,2013-01-19 19:53:00,
2013-01-19 10:58:00,26.6,24.3,30.14,NNW,345,0.0,0.0,91,0.00,CLR,,0.00,WeatherDisplay:10.37,2013-01-19 19:58:00,
2013-01-19 11:03:00,26.7,24.4,30.14,NNW,344,0.0,0.0,91,0.00,CLR,,0.00,WeatherDisplay:10.37,2013-01-19 20:03:00,
2013-01-19 11:08:00,26.9,24.6,30.14,NNW,345,0.0,0.0,91,0.00,CLR,,0.00,WeatherDisplay:10.37,2013-01-19 20:08:00,
2013-01-19 11:13:00,27.0,24.7,30.14,NNW,345,0.0,0.0,91,0.00,CLR,,0.00,WeatherDisplay:10.37,2013-01-19 20:13:00,
2013-01-19 11:18:00,27.1,24.8,30.14,NNW,345,0.0,0.0,91,0.00,CLR,,0.00,WeatherDisplay:10.37,2013-01-19 20:18:00,
2013-01-19 11:23:00,27.2,24.9,30.14,NNW,345,0.0,0.0,91,0.00,CLR,,0.00,WeatherDisplay:10.37,2013-01-19 20:23:00,
2013-01-19 11:28:00,27.4,25.1,30.14,NNW,344,0.0,0.0,91,0.00,CLR,,0.00,WeatherDisplay:10.37,2013-01-19 20:28:00,
2013-01-19 11:33:00,27.5,25.2,30.14,NNW,345,0.0,0.0,91,0.00,CLR,,0.00,WeatherDisplay:10.37,2013-01-19 20:33:00,
2013-01-19 11:38:00,27.7,25.7,30.14,NNW,345,0.0,0.0,92,0.00,CLR,,0.00,WeatherDisplay:10.37,2013-01-19 20:38:00,
2013-01-19 11:43:00,27.8,25.5,30.14,NNW,345,0.0,0.0,91,0.00,CLR,,0.00,WeatherDisplay:10.37,2013-01-19 20:43:00,
2013-01-19 11:48:00,27.9,25.6,30.14,NNW,345,0.0,0.0,91,0.00,CLR,,0.00,WeatherDisplay:10.37,2013-01-19 20:48:00,
2013-01-19 11:53:00,28.0,25.7,30.14,NNW,344,0.0,0.0,91,0.00,CLR,,0.00,WeatherDisplay:10.37,2013-01-19 20:53:00,
2013-01-19 11:58:00,28.3,26.0,30.14,NNW,344,0.0,0.0,91,0.00,CLR,,0.00,WeatherDisplay:10.37,2013-01-19 20:58:00,
2013-01-19 12:03:00,28.6,26.3,30.13,NNW,345,0.0,0.0,91,0.00,CLR,,0.00,WeatherDisplay:10.37,2013-01-19 21:03:00,
2013-01-19 12:08:00,29.0,26.7,30.13,NNW,345,0.0,0.0,91,0.00,CLR,,0.00,WeatherDisplay:10.37,2013-01-19 21:08:00,
2013-01-19 12:13:00,29.3,27.0,30.14,NNW,344,0.0,0.0,91,0.00,CLR,,0.00,WeatherDisplay:10.37,2013-01-19 21:13:00,
2013-01-19 12:18:00,29.6,27.3,30.13,NNW,345,0.0,0.0,91,0.00,CLR,,0.00,WeatherDisplay:10.37,2013-01-19 21:18:00,
2013-01-19 12:23:00,29.9,27.6,30.13,NNW,345,0.0,0.0,91,0.00,CLR,,0.00,WeatherDisplay:10.37,2013-01-19 21:23:00,
2013-01-19 12:29:00,30.1,27.8,30.13,NNW,345,0.0,0.0,91,0.00,CLR,,0.00,WeatherDisplay:10.37,2013-01-19 21:29:00,
2013-01-19 12:34:00,30.3,27.7,30.13,NNW,345,0.0,0.0,90,0.00,CLR,,0.00,WeatherDisplay:10.37,2013-01-19 21:34:00,
2013-01-19 12:39:00,30.5,27.6,30.13,NNW,344,0.0,0.0,89,0.00,CLR,,0.00,WeatherDisplay:10.37,2013-01-19 21:39:00,
2013-01-19 12:44:00,30.6,27.7,30.12,NNW,344,0.0,0.0,89,0.00,CLR,,0.00,WeatherDisplay:10.37,2013-01-19 21:44:00,
2013-01-19 12:49:00,30.7,27.8,30.12,NNW,344,0.0,0.0,89,0.00,CLR,,0.00,WeatherDisplay:10.37,2013-01-19 21:49:00,
2013-01-19 12:54:00,30.8,27.9,30.12,NNW,345,0.0,0.0,89,0.00,CLR,,0.00,WeatherDisplay:10.37,2013-01-19 21:54:00,
2013-01-19 12:59:00,30.9,28.0,30.12,NNW,344,0.0,0.0,89,0.00,CLR,,0.00,WeatherDisplay:10.37,2013-01-19 21:59:00,
2013-01-19 13:04:00,30.9,27.8,30.12,NNW,345,0.0,0.0,88,0.00,CLR,,0.00,WeatherDisplay:10.37,2013-01-19 22:04:00,
2013-01-19 13:09:00,30.9,27.8,30.11,NNW,344,0.0,0.0,88,0.00,CLR,,0.00,WeatherDisplay:10.37,2013-01-19 22:09:00,
2013-01-19 13:14:00,30.9,27.8,30.11,NNW,345,0.0,0.0,88,0.00,CLR,,0.00,WeatherDisplay:10.37,2013-01-19 22:14:00,
2013-01-19 13:19:00,31.0,27.9,30.10,NNW,345,0.0,0.0,88,0.00,CLR,,0.00,WeatherDisplay:10.37,2013-01-19 22:19:00,
2013-01-19 13:24:00,31.1,28.0,30.10,NNW,344,0.0,0.0,88,0.00,CLR,,0.00,WeatherDisplay:10.37,2013-01-19 22:24:00,
2013-01-19 13:29:00,31.2,28.1,30.10,NNW,344,0.0,0.0,88,0.00,CLR,,0.00,WeatherDisplay:10.37,2013-01-19 22:29:00,
2013-01-19 13:34:00,31.4,28.3,30.10,NNW,345,0.0,0.0,88,0.00,CLR,,0.00,WeatherDisplay:10.37,2013-01-19 22:34:00,
2013-01-19 13:39:00,31.5,28.1,30.10,NNW,345,0.0,0.0,87,0.00,CLR,,0.00,WeatherDisplay:10.37,2013-01-19 22:39:00,
2013-01-19 13:44:00,31.5,28.1,30.10,NNW,344,0.0,0.0,87,0.00,CLR,,0.00,WeatherDisplay:10.37,2013-01-19 22:44:00,
2013-01-19 13:49:00,31.5,28.1,30.10,NNW,345,0.0,0.0,87,0.00,CLR,,0.00,WeatherDisplay:10.37,2013-01-19 22:49:00,
2013-01-19 13:54:00,31.5,28.1,30.10,NNW,344,0.0,0.0,87,0.00,CLR,,0.00,WeatherDisplay:10.37,2013-01-19 22:54:00,
2013-01-19 13:59:00,31.6,28.2,30.10,NNW,344,0.0,0.0,87,0.00,CLR,,0.00,WeatherDisplay:10.37,2013-01-19 22:59:00,
2013-01-19 14:04:00,31.4,28.0,30.10,NNW,345,0.0,0.0,87,0.00,CLR,,0.00,WeatherDisplay:10.37,2013-01-19 23:04:00,
2013-01-19 14:09:00,31.3,28.2,30.09,NNW,344,0.0,0.0,88,0.00,CLR,,0.00,WeatherDisplay:10.37,2013-01-19 23:09:00,
2013-01-19 14:14:00,31.2,28.3,30.09,NNW,345,0.0,0.0,89,0.00,CLR,,0.00,WeatherDisplay:10.37,2013-01-19 23:14:00,
2013-01-19 14:19:00,31.2,28.3,30.09,NNW,345,0.0,0.0,89,0.00,CLR,,0.00,WeatherDisplay:10.37,2013-01-19 23:19:00,
2013-01-19 14:24:00,31.1,28.2,30.08,NNW,344,0.0,0.0,89,0.00,CLR,,0.00,WeatherDisplay:10.37,2013-01-19 23:24:00,
2013-01-19 14:29:00,31.1,28.5,30.08,NNW,345,0.0,0.0,90,0.00,CLR,,0.00,WeatherDisplay:10.37,2013-01-19 23:29:00,
2013-01-19 14:34:00,31.1,28.5,30.08,NNW,345,0.0,0.0,90,0.00,CLR,,0.00,WeatherDisplay:10.37,2013-01-19 23:34:00,
2013-01-19 14:39:00,31.1,28.5,30.07,NNW,345,0.0,0.0,90,0.00,CLR,,0.00,WeatherDisplay:10.37,2013-01-19 23:39:00,
2013-01-19 14:44:00,31.2,28.6,30.07,NNW,344,0.0,0.0,90,0.00,CLR,,0.00,WeatherDisplay:10.37,2013-01-19 23:44:00,
2013-01-19 14:49:00,31.1,28.8,30.06,NNW,345,0.0,0.0,91,0.00,CLR,,0.00,WeatherDisplay:10.37,2013-01-19 23:49:00,
2013-01-19 14:54:00,31.2,28.9,30.06,NNW,345,0.0,0.0,91,0.01,RA,,0.01,WeatherDisplay:10.37,2013-01-19 23:54:00,
2013-01-19 14:59:00,31.3,29.0,30.06,NNW,345,0.0,0.0,91,0.01,RA,,0.01,WeatherDisplay:10.37,2013-01-19 23:59:00,
2013-01-19 15:04:00,31.3,29.0,30.06,NNW,345,0.0,0.0,91,0.01,RA,,0.01,WeatherDisplay:10.37,2013-01-20 00:04:00,
2013-01-19 15:09:00,31.4,29.1,30.06,NNW,344,0.0,0.0,91,0.01,CLR,,0.01,WeatherDisplay:10.37,2013-01-20 00:09:00,
2013-01-19 15:14:00,31.3,29.0,30.06,NNW,344,0.0,0.0,91,0.01,CLR,,0.01,WeatherDisplay:10.37,2013-01-20 00:14:00,
2013-01-19 15:19:00,31.3,29.0,30.06,NNW,345,0.0,0.0,91,0.01,CLR,,0.01,WeatherDisplay:10.37,2013-01-20 00:19:00,
2013-01-19 15:24:00,31.2,28.9,30.05,NNW,345,0.0,0.0,91,0.01,CLR,,0.01,WeatherDisplay:10.37,2013-01-20 00:24:00,
2013-01-19 15:29:00,31.2,29.1,30.05,NNW,344,0.0,0.0,92,0.01,CLR,,0.01,WeatherDisplay:10.37,2013-01-20 00:29:00,
2013-01-19 15:34:00,31.1,29.0,30.05,NNW,345,0.0,0.0,92,0.01,CLR,,0.01,WeatherDisplay:10.37,2013-01-20 00:34:00,
2013-01-19 15:39:00,31.1,29.0,30.04,NNW,344,0.0,0.0,92,0.01,CLR,,0.01,WeatherDisplay:10.37,2013-01-20 00:39:00,
2013-01-19 15:44:00,31.0,28.9,30.04,NNW,345,0.0,0.0,92,0.01,CLR,,0.01,WeatherDisplay:10.37,2013-01-20 00:44:00,
2013-01-19 15:49:00,31.0,28.9,30.03,NNW,345,0.0,0.0,92,0.01,CLR,,0.01,WeatherDisplay:10.37,2013-01-20 00:49:00,
2013-01-19 15:54:00,31.0,28.9,30.03,NNW,345,0.0,0.0,92,0.00,CLR,,0.01,WeatherDisplay:10.37,2013-01-20 00:54:00,
2013-01-19 15:59:00,30.9,28.9,30.03,NNW,345,0.0,0.0,92,0.00,CLR,,0.01,WeatherDisplay:10.37,2013-01-20 00:59:00,
2013-01-19 16:04:00,30.9,28.9,30.03,NNW,344,0.0,0.0,92,0.00,CLR,,0.01,WeatherDisplay:10.37,2013-01-20 01:04:00,
2013-01-19 16:09:00,30.8,28.8,30.03,NNW,344,0.0,0.0,92,0.00,CLR,,0.01,WeatherDisplay:10.37,2013-01-20 01:09:00,
2013-01-19 16:14:00,30.7,28.7,30.03,NNW,345,0.0,0.0,92,0.00,CLR,,0.01,WeatherDisplay:10.37,2013-01-20 01:14:00,
2013-01-19 16:19:00,30.6,28.6,30.02,NNW,345,0.0,0.0,92,0.00,CLR,,0.01,WeatherDisplay:10.37,2013-01-20 01:19:00,
2013-01-19 16:24:00,30.5,28.5,30.02,NNW,344,0.0,0.0,92,0.00,CLR,,0.01,WeatherDisplay:10.37,2013-01-20 01:24:00,
2013-01-19 16:29:00,30.5,28.5,30.02,NNW,344,0.0,0.0,92,0.00,CLR,,0.01,WeatherDisplay:10.37,2013-01-20 01:29:00,
2013-01-19 16:34:00,30.4,28.4,30.02,NNW,345,0.0,0.0,92,0.00,CLR,,0.01,WeatherDisplay:10.37,2013-01-20 01:34:00,
2013-01-19 16:39:00,30.3,28.3,30.02,NNW,345,0.0,0.0,92,0.00,CLR,,0.01,WeatherDisplay:10.37,2013-01-20 01:39:00,
2013-01-19 16:44:00,30.2,28.2,30.02,NNW,345,0.0,0.0,92,0.00,CLR,,0.01,WeatherDisplay:10.37,2013-01-20 01:44:00,
2013-01-19 16:49:00,30.1,28.3,30.02,NNW,345,0.0,0.0,93,0.00,CLR,,0.01,WeatherDisplay:10.37,2013-01-20 01:49:00,
2013-01-19 16:54:00,30.1,28.3,30.01,NNW,344,0.0,0.0,93,0.00,CLR,,0.01,WeatherDisplay:10.37,2013-01-20 01:54:00,
2013-01-19 16:59:00,30.1,28.3,30.01,NNW,344,0.0,0.0,93,0.00,CLR,,0.01,WeatherDisplay:10.37,2013-01-20 01:59:00,
2013-01-19 17:04:00,30.1,28.3,30.01,NNW,345,0.0,0.0,93,0.00,CLR,,0.01,WeatherDisplay:10.37,2013-01-20 02:04:00,
2013-01-19 17:09:00,30.1,28.3,30.00,NNW,344,0.0,0.0,93,0.00,CLR,,0.01,WeatherDisplay:10.37,2013-01-20 02:09:00,
2013-01-19 17:14:00,30.0,28.0,30.00,NNW,345,0.0,0.0,92,0.00,CLR,,0.01,WeatherDisplay:10.37,2013-01-20 02:14:00,
2013-01-19 17:19:00,29.9,28.1,30.00,NNW,344,0.0,0.0,93,0.00,CLR,,0.01,WeatherDisplay:10.37,2013-01-20 02:19:00,
2013-01-19 17:24:00,30.3,28.3,30.00,NNW,344,0.0,0.0,92,0.00,CLR,,0.01,WeatherDisplay:10.37,2013-01-20 02:24:00,
2013-01-19 17:29:00,31.3,27.9,29.99,NNW,345,0.0,0.0,87,0.00,CLR,,0.01,WeatherDisplay:10.37,2013-01-20 02:29:00,
2013-01-19 17:34:00,32.7,27.8,29.98,NNW,344,0.0,0.0,82,0.00,CLR,,0.01,WeatherDisplay:10.37,2013-01-20 02:34:00,
2013-01-19 17:39:00,33.8,27.7,29.98,NNW,345,0.0,0.0,78,0.00,CLR,,0.01,WeatherDisplay:10.37,2013-01-20 02:39:00,
2013-01-19 17:44:00,34.4,27.6,29.98,NNW,345,0.0,0.0,76,0.00,CLR,,0.01,WeatherDisplay:10.37,2013-01-20 02:44:00,
2013-01-19 17:49:00,34.5,27.7,29.98,NNW,345,0.0,0.0,76,0.00,CLR,,0.01,WeatherDisplay:10.37,2013-01-20 02:49:00,
2013-01-19 17:54:00,34.8,28.0,29.98,NNW,344,0.0,0.0,76,0.00,CLR,,0.01,WeatherDisplay:10.37,2013-01-20 02:54:00,
2013-01-19 17:59:00,35.1,27.3,29.97,NNW,345,0.0,0.0,73,0.00,CLR,,0.01,WeatherDisplay:10.37,2013-01-20 02:59:00,
2013-01-19 18:04:00,35.5,27.4,29.97,NNW,345,0.0,0.0,72,0.00,CLR,,0.01,WeatherDisplay:10.37,2013-01-20 03:04:00,
2013-01-19 18:09:00,35.9,27.4,29.97,NNW,344,0.0,0.0,71,0.00,CLR,,0.01,WeatherDisplay:10.37,2013-01-20 03:09:00,
2013-01-19 18:14:00,36.2,27.4,29.97,NNW,344,0.0,0.0,70,0.00,CLR,,0.01,WeatherDisplay:10.37,2013-01-20 03:14:00,
2013-01-19 18:19:00,36.4,27.9,29.97,NNW,345,0.0,0.0,71,0.00,CLR,,0.01,WeatherDisplay:10.37,2013-01-20 03:19:00,
2013-01-19 18:24:00,36.2,28.0,29.96,NNW,345,0.0,0.0,72,0.00,CLR,,0.01,WeatherDisplay:10.37,2013-01-20 03:24:00,
2013-01-19 18:29:00,35.8,28.0,29.96,NNW,344,0.0,0.0,73,0.00,CLR,,0.01,WeatherDisplay:10.37,2013-01-20 03:29:00,
2013-01-19 18:34:00,35.4,27.6,29.96,NNW,344,0.0,0.0,73,0.00,CLR,,0.01,WeatherDisplay:10.37,2013-01-20 03:34:00,
2013-01-19 18:39:00,35.2,27.7,29.96,NNW,344,0.0,0.0,74,0.00,CLR,,0.01,WeatherDisplay:10.37,2013-01-20 03:39:00,
2013-01-19 18:44:00,34.9,28.4,29.95,NNW,344,0.0,0.0,77,0.00,CLR,,0.01,WeatherDisplay:10.37,2013-01-20 03:44:00,
2013-01-19 18:49:00,34.4,28.6,29.95,NNW,344,0.0,0.0,79,0.00,CLR,,0.01,WeatherDisplay:10.37,2013-01-20 03:49:00,
2013-01-19 18:54:00,33.8,28.3,29.95,NNW,344,0.0,0.0,80,0.00,CLR,,0.01,WeatherDisplay:10.37,2013-01-20 03:54:00,
2013-01-19 18:59:00,33.4,28.5,29.95,NNW,345,0.0,0.0,82,0.00,CLR,,0.01,WeatherDisplay:10.37,2013-01-20 03:59:00,
2013-01-19 19:04:00,32.8,28.2,29.95,NNW,345,0.0,0.0,83,0.00,CLR,,0.01,WeatherDisplay:10.37,2013-01-20 04:04:00,
2013-01-19 19:09:00,32.2,28.2,29.94,NNW,345,0.0,0.0,85,0.00,CLR,,0.01,WeatherDisplay:10.37,2013-01-20 04:09:00,
2013-01-19 19:14:00,32.1,28.1,29.94,NNW,345,0.0,0.0,85,0.00,CLR,,0.01,WeatherDisplay:10.37,2013-01-20 04:14:00,
2013-01-19 19:19:00,32.2,28.5,29.94,NNW,345,0.0,0.0,86,0.00,CLR,,0.01,WeatherDisplay:10.37,2013-01-20 04:19:00,
2013-01-19 19:24:00,32.2,28.8,29.94,NNW,344,0.0,0.0,87,0.00,CLR,,0.01,WeatherDisplay:10.37,2013-01-20 04:24:00,
2013-01-19 19:29:00,32.1,28.9,29.94,NNW,345,0.0,0.0,88,0.00,CLR,,0.01,WeatherDisplay:10.37,2013-01-20 04:29:00,
2013-01-19 19:34:00,32.0,28.8,29.94,NNW,344,0.0,0.0,88,0.00,CLR,,0.01,WeatherDisplay:10.37,2013-01-20 04:34:00,
2013-01-19 19:39:00,31.9,29.0,29.94,NNW,345,0.0,0.0,89,0.00,CLR,,0.01,WeatherDisplay:10.37,2013-01-20 04:39:00,
2013-01-19 19:44:00,31.9,29.3,29.95,NNW,345,0.0,0.0,90,0.00,CLR,,0.01,WeatherDisplay:10.37,2013-01-20 04:44:00,
2013-01-19 19:49:00,31.9,29.3,29.95,NNW,344,0.0,0.0,90,0.00,CLR,,0.01,WeatherDisplay:10.37,2013-01-20 04:49:00,
2013-01-19 19:54:00,32.1,29.8,29.95,NNW,345,0.0,0.0,91,0.00,CLR,,0.01,WeatherDisplay:10.37,2013-01-20 04:54:00,
2013-01-19 19:59:00,32.2,29.9,29.95,NNW,345,0.0,0.0,91,0.00,CLR,,0.01,WeatherDisplay:10.37,2013-01-20 04:59:00,
2013-01-19 20:00:00,32.2,29.9,29.95,NNW,345,0.0,0.0,91,0.00,CLR,,0.01,WeatherDisplay:10.37,2013-01-20 05:00:00,
2013-01-19 20:01:00,32.4,30.1,29.95,NNW,345,0.0,0.0,91,0.00,CLR,,0.01,WeatherDisplay:10.37,2013-01-20 05:01:00,
2013-01-19 20:06:00,32.7,30.4,29.95,NNW,345,0.0,0.0,91,0.00,CLR,,0.01,WeatherDisplay:10.37,2013-01-20 05:06:00,
2013-01-19 20:11:00,32.7,30.4,29.95,NNW,345,0.0,0.0,91,0.00,CLR,,0.01,WeatherDisplay:10.37,2013-01-20 05:11:00,
2013-01-19 20:16:00,32.6,30.3,29.95,NNW,345,0.0,0.0,91,0.00,CLR,,0.01,WeatherDisplay:10.37,2013-01-20 05:16:00,
2013-01-19 20:21:00,32.5,30.4,29.95,NNW,344,0.0,0.0,92,0.00,CLR,,0.01,WeatherDisplay:10.37,2013-01-20 05:21:00,
2013-01-19 20:26:00,32.5,30.2,29.94,NNW,345,0.0,0.0,91,0.00,CLR,,0.01,WeatherDisplay:10.37,2013-01-20 05:26:00,
2013-01-19 20:31:00,32.4,30.3,29.94,NNW,345,0.0,0.0,92,0.00,CLR,,0.01,WeatherDisplay:10.37,2013-01-20 05:31:00,
2013-01-19 20:36:00,32.3,30.2,29.94,NNW,345,0.0,0.0,92,0.00,CLR,,0.01,WeatherDisplay:10.37,2013-01-20 05:36:00,
2013-01-19 20:41:00,32.5,30.4,29.94,NNW,345,0.0,0.0,92,0.00,CLR,,0.01,WeatherDisplay:10.37,2013-01-20 05:41:00,
2013-01-19 20:46:00,32.5,30.4,29.94,NNW,345,0.0,0.0,92,0.00,CLR,,0.01,WeatherDisplay:10.37,2013-01-20 05:46:00,
2013-01-19 20:51:00,32.4,30.3,29.94,NNW,345,0.0,0.0,92,0.00,CLR,,0.01,WeatherDisplay:10.37,2013-01-20 05:51:00,
2013-01-19 20:56:00,32.3,30.2,29.93,NNW,344,0.0,0.0,92,0.00,CLR,,0.01,WeatherDisplay:10.37,2013-01-20 05:56:00,
2013-01-19 21:01:00,32.4,30.3,29.93,NNW,345,0.0,0.0,92,0.00,CLR,,0.01,WeatherDisplay:10.37,2013-01-20 06:01:00,
2013-01-19 21:06:00,32.6,30.5,29.93,NNW,345,0.0,0.0,92,0.00,CLR,,0.01,WeatherDisplay:10.37,2013-01-20 06:06:00,
2013-01-19 21:11:00,32.7,30.6,29.93,NNW,345,0.0,0.0,92,0.00,CLR,,0.01,WeatherDisplay:10.37,2013-01-20 06:11:00,
2013-01-19 21:16:00,33.0,30.7,29.92,NNW,344,0.0,0.0,91,0.00,CLR,,0.01,WeatherDisplay:10.37,2013-01-20 06:16:00,
2013-01-19 21:21:00,33.2,30.9,29.92,NNW,345,0.0,0.0,91,0.00,CLR,,0.01,WeatherDisplay:10.37,2013-01-20 06:21:00,
2013-01-19 21:26:00,33.1,30.8,29.92,NNW,345,0.0,0.0,91,0.00,CLR,,0.01,WeatherDisplay:10.37,2013-01-20 06:26:00,
2013-01-19 21:31:00,32.9,30.6,29.91,NNW,345,0.0,0.0,91,0.00,CLR,,0.01,WeatherDisplay:10.37,2013-01-20 06:31:00,
2013-01-19 21:36:00,32.8,30.7,29.91,NNW,345,0.0,0.0,92,0.00,CLR,,0.01,WeatherDisplay:10.37,2013-01-20 06:36:00,
2013-01-19 21:41:00,33.0,30.9,29.91,NNW,345,0.0,0.0,92,0.00,CLR,,0.01,WeatherDisplay:10.37,2013-01-20 06:41:00,
2013-01-19 21:46:00,33.0,30.9,29.91,NNW,345,0.0,0.0,92,0.00,CLR,,0.01,WeatherDisplay:10.37,2013-01-20 06:46:00,
2013-01-19 21:51:00,33.0,30.9,29.90,NNW,344,0.0,0.0,92,0.00,CLR,,0.01,WeatherDisplay:10.37,2013-01-20 06:51:00,
2013-01-19 21:56:00,33.1,31.0,29.91,NNW,345,0.0,0.0,92,0.00,CLR,,0.01,WeatherDisplay:10.37,2013-01-20 06:56:00,
2013-01-19 22:01:00,33.1,31.0,29.91,NNW,345,0.0,0.0,92,0.00,CLR,,0.01,WeatherDisplay:10.37,2013-01-20 07:01:00,
2013-01-19 22:06:00,33.3,31.2,29.91,NNW,344,0.0,0.0,92,0.00,CLR,,0.01,WeatherDisplay:10.37,2013-01-20 07:06:00,
2013-01-19 22:11:00,33.3,31.2,29.91,NNW,345,0.0,0.0,92,0.00,CLR,,0.01,WeatherDisplay:10.37,2013-01-20 07:11:00,
2013-01-19 22:16:00,33.3,31.2,29.91,NNW,345,0.0,0.0,92,0.00,CLR,,0.01,WeatherDisplay:10.37,2013-01-20 07:16:00,
2013-01-19 22:21:00,33.4,31.3,29.91,NNW,345,0.0,0.0,92,0.00,CLR,,0.01,WeatherDisplay:10.37,2013-01-20 07:21:00,
2013-01-19 22:26:00,33.4,31.1,29.90,NNW,344,0.0,0.0,91,0.00,CLR,,0.01,WeatherDisplay:10.37,2013-01-20 07:26:00,
2013-01-19 22:31:00,33.2,31.1,29.90,NNW,345,0.0,0.0,92,0.00,CLR,,0.01,WeatherDisplay:10.37,2013-01-20 07:31:00,
2013-01-19 22:36:00,32.9,30.8,29.89,NNW,345,0.0,0.0,92,0.00,CLR,,0.01,WeatherDisplay:10.37,2013-01-20 07:36:00,
2013-01-19 22:41:00,32.7,30.6,29.90,NNW,345,0.0,0.0,92,0.01,RA,,0.02,WeatherDisplay:10.37,2013-01-20 07:41:00,
2013-01-19 22:46:00,32.6,30.5,29.90,NNW,345,0.0,0.0,92,0.01,RA,,0.02,WeatherDisplay:10.37,2013-01-20 07:46:00,
2013-01-19 22:51:00,32.5,30.7,29.90,NNW,345,0.0,0.0,93,0.01,CLR,,0.02,WeatherDisplay:10.37,2013-01-20 07:51:00,
2013-01-19 22:56:00,32.5,30.7,29.89,NNW,345,0.0,0.0,93,0.01,CLR,,0.02,WeatherDisplay:10.37,2013-01-20 07:56:00,
2013-01-19 23:01:00,32.5,30.7,29.90,NNW,344,0.0,0.0,93,0.01,CLR,,0.02,WeatherDisplay:10.37,2013-01-20 08:01:00,
2013-01-19 23:06:00,32.5,30.7,29.89,NNW,345,0.0,0.0,93,0.01,CLR,,0.02,WeatherDisplay:10.37,2013-01-20 08:06:00,
2013-01-19 23:11:00,32.6,30.8,29.89,NNW,345,0.0,0.0,93,0.01,CLR,,0.02,WeatherDisplay:10.37,2013-01-20 08:11:00,
2013-01-19 23:16:00,32.7,30.9,29.89,NNW,344,0.0,0.0,93,0.02,RA,,0.03,WeatherDisplay:10.37,2013-01-20 08:16:00,
2013-01-19 23:21:00,32.6,30.8,29.89,NNW,344,0.0,0.0,93,0.02,RA,,0.03,WeatherDisplay:10.37,2013-01-20 08:21:00,
2013-01-19 23:26:00,32.6,30.8,29.89,NNW,345,0.0,0.0,93,0.02,CLR,,0.03,WeatherDisplay:10.37,2013-01-20 08:26:00,
2013-01-19 23:31:00,32.6,30.8,29.89,NNW,345,0.0,0.0,93,0.02,CLR,,0.03,WeatherDisplay:10.37,2013-01-20 08:31:00,
2013-01-19 23:36:00,32.6,30.8,29.89,NNW,345,0.0,0.0,93,0.02,CLR,,0.03,WeatherDisplay:10.37,2013-01-20 08:36:00,
2013-01-19 23:41:00,32.8,31.0,29.90,NNW,345,0.0,0.0,93,0.01,CLR,,0.03,WeatherDisplay:10.37,2013-01-20 08:41:00,
2013-01-19 23:46:00,32.9,31.1,29.90,NNW,345,0.0,0.0,93,0.02,RA,,0.04,WeatherDisplay:10.37,2013-01-20 08:46:00,
2013-01-19 23:51:00,33.0,31.2,29.90,NNW,345,0.0,0.0,93,0.02,RA,,0.04,WeatherDisplay:10.37,2013-01-20 08:51:00,
2013-01-19 23:56:00,33.3,31.5,29.90,NNW,345,0.0,0.0,93,0.02,,,0.04,WeatherDisplay:10.37,2013-01-20 08:56:00,